createdAt,value
2022-12-18T00:01:00.651Z,3.00
2022-12-18T00:05:04.698Z,3.53
2022-12-18T00:07:06.583Z,3.55
2022-12-18T00:09:08.486Z,3.40
2022-12-18T00:11:20.813Z,4.00
2022-12-18T00:13:22.777Z,3.90
2022-12-18T00:15:24.610Z,3.88
2022-12-18T00:17:26.471Z,3.83
2022-12-18T00:19:28.510Z,3.75
2022-12-18T00:23:36.237Z,3.85
2022-12-18T00:25:38.330Z,3.85
2022-12-18T00:27:40.199Z,4.00
2022-12-18T00:29:42.023Z,4.78
2022-12-18T00:31:44.406Z,5.20
2022-12-18T00:33:46.673Z,4.38
2022-12-18T00:35:48.535Z,4.53
2022-12-18T00:37:50.431Z,5.05
2022-12-18T00:39:52.363Z,5.65
2022-12-18T00:42:12.657Z,4.43
2022-12-18T00:44:18.154Z,5.88
2022-12-18T00:46:20.120Z,5.65
2022-12-18T00:50:25.611Z,6.90
2022-12-18T00:52:27.489Z,6.15
2022-12-18T00:54:29.497Z,5.97
2022-12-18T00:56:31.353Z,5.20
2022-12-18T00:58:33.230Z,6.05
2022-12-18T01:00:35.725Z,4.97
2022-12-18T01:02:37.806Z,5.70
2022-12-18T01:04:39.742Z,5.70
2022-12-18T01:06:41.780Z,5.80
2022-12-18T01:10:46.571Z,6.18
2022-12-18T01:12:49.189Z,6.32
2022-12-18T01:14:51.239Z,6.80
2022-12-18T01:18:55.904Z,5.53
2022-12-18T01:20:57.861Z,7.72
2022-12-18T01:22:59.835Z,6.90
2022-12-18T01:25:01.775Z,7.45
2022-12-18T01:27:03.698Z,8.30
2022-12-18T01:29:05.579Z,7.43
2022-12-18T01:31:28.798Z,7.97
2022-12-18T01:33:30.693Z,6.47
2022-12-18T01:35:32.847Z,7.40
2022-12-18T01:37:34.716Z,8.88
2022-12-18T01:39:36.545Z,8.80
2022-12-18T01:41:57.788Z,8.98
2022-12-18T01:43:59.651Z,9.07
2022-12-18T01:46:01.532Z,9.02
2022-12-18T01:48:07.836Z,8.63
2022-12-18T01:50:16.984Z,9.65
2022-12-18T01:52:19.814Z,8.85
2022-12-18T01:54:21.728Z,9.70
2022-12-18T01:56:23.808Z,9.63
2022-12-18T02:00:33.451Z,9.85
2022-12-18T02:02:35.735Z,10.25
2022-12-18T02:04:37.716Z,9.82
2022-12-18T02:06:42.450Z,7.85
2022-12-18T02:08:44.237Z,8.63
2022-12-18T02:11:08.336Z,8.80
2022-12-18T02:13:19.271Z,8.07
2022-12-18T02:15:35.312Z,7.93
2022-12-18T02:17:44.311Z,8.70
2022-12-18T02:19:52.045Z,9.68
2022-12-18T02:21:58.241Z,8.75
2022-12-18T02:24:35.751Z,9.35
2022-12-18T02:26:43.538Z,10.35
2022-12-18T02:29:06.866Z,10.35
2022-12-18T02:31:14.772Z,10.77
2022-12-18T02:33:18.371Z,10.75
2022-12-18T02:35:30.000Z,10.68
2022-12-18T02:39:38.598Z,9.95
2022-12-18T02:41:41.048Z,10.95
2022-12-18T02:43:54.330Z,10.35
2022-12-18T02:45:59.242Z,10.13
2022-12-18T02:48:01.186Z,11.55
2022-12-18T02:50:21.835Z,10.93
2022-12-18T02:52:53.100Z,12.40
2022-12-18T02:55:16.349Z,10.20
2022-12-18T02:57:33.380Z,10.65
2022-12-18T02:59:59.386Z,15.05
2022-12-18T03:02:27.949Z,12.85
2022-12-18T03:05:01.988Z,15.93
2022-12-18T03:07:09.011Z,15.80
2022-12-18T03:09:32.790Z,13.90
2022-12-18T03:11:56.174Z,12.48
2022-12-18T03:13:58.933Z,12.00
2022-12-18T03:16:02.466Z,12.98
2022-12-18T03:18:10.057Z,14.30
2022-12-18T03:20:16.018Z,12.65
2022-12-18T03:22:18.651Z,10.82
2022-12-18T03:24:22.220Z,14.13
2022-12-18T03:26:27.937Z,12.05
2022-12-18T03:28:33.149Z,15.80
2022-12-18T03:30:37.557Z,14.35
2022-12-18T03:32:58.796Z,12.38
2022-12-18T03:35:07.701Z,13.45
2022-12-18T03:37:09.669Z,15.88
2022-12-18T03:41:41.386Z,12.95
2022-12-18T03:44:09.995Z,11.30
2022-12-18T03:46:36.825Z,12.32
2022-12-18T03:48:52.739Z,15.40
2022-12-18T03:51:09.080Z,13.10
2022-12-18T03:53:43.711Z,12.40
2022-12-18T03:55:48.488Z,15.30
2022-12-18T03:57:52.247Z,14.05
2022-12-18T04:00:08.105Z,9.00
2022-12-18T04:02:10.685Z,14.23
2022-12-18T04:04:15.343Z,15.55
2022-12-18T04:06:18.312Z,13.77
2022-12-18T04:08:21.728Z,13.23
2022-12-18T04:10:24.016Z,14.50
2022-12-18T04:12:27.285Z,15.15
2022-12-18T04:14:29.150Z,14.80
2022-12-18T04:16:30.989Z,12.95
2022-12-18T04:18:32.832Z,14.10
2022-12-18T04:20:34.672Z,13.68
2022-12-18T04:22:36.579Z,14.77
2022-12-18T04:24:38.602Z,14.27
2022-12-18T04:26:40.649Z,15.82
2022-12-18T04:28:42.764Z,13.75
2022-12-18T04:30:44.717Z,14.13
2022-12-18T04:34:54.227Z,12.57
2022-12-18T04:38:57.952Z,15.73
2022-12-18T04:41:00.127Z,15.73
2022-12-18T04:43:02.041Z,16.17
2022-12-18T04:47:05.880Z,20.20
2022-12-18T04:49:07.908Z,18.67
2022-12-18T04:53:11.555Z,15.73
2022-12-18T04:55:13.413Z,18.95
2022-12-18T04:57:15.418Z,14.10
2022-12-18T05:01:19.701Z,15.73
2022-12-18T05:03:21.656Z,15.85
2022-12-18T05:05:23.648Z,16.85
2022-12-18T05:09:27.427Z,14.85
2022-12-18T05:11:29.347Z,17.55
2022-12-18T05:13:31.683Z,17.20
2022-12-18T05:15:34.905Z,19.05
2022-12-18T05:17:36.913Z,21.02
2022-12-18T05:19:40.128Z,19.70
2022-12-18T05:21:41.957Z,19.80
2022-12-18T05:23:44.607Z,19.55
2022-12-18T05:25:57.861Z,20.30
2022-12-18T05:27:59.751Z,21.42
2022-12-18T05:30:02.013Z,23.48
2022-12-18T05:32:03.958Z,18.27
2022-12-18T05:36:09.463Z,21.35
2022-12-18T05:38:11.526Z,15.82
2022-12-18T05:40:13.782Z,20.58
2022-12-18T05:42:15.746Z,21.88
2022-12-18T05:46:19.697Z,24.15
2022-12-18T05:48:22.322Z,24.00
2022-12-18T05:50:24.162Z,21.15
2022-12-18T05:52:26.056Z,23.05
2022-12-18T05:54:32.098Z,22.42
2022-12-18T05:56:33.976Z,18.55
2022-12-18T05:58:36.066Z,18.50
2022-12-18T06:00:40.964Z,17.10
2022-12-18T08:14:13.471Z,15.10
2022-12-18T08:18:17.160Z,13.73
2022-12-18T08:20:19.397Z,16.40
2022-12-18T08:22:21.375Z,17.38
2022-12-18T08:26:27.141Z,13.38
2022-12-18T08:28:29.010Z,18.35
2022-12-18T08:30:30.922Z,14.88
2022-12-18T08:34:35.919Z,12.20
2022-12-18T08:38:39.719Z,16.75
2022-12-18T08:40:41.606Z,19.65
2022-12-18T08:43:01.853Z,23.80
2022-12-18T08:45:04.746Z,20.08
2022-12-18T08:47:07.580Z,22.70
2022-12-18T08:49:10.487Z,22.20
2022-12-18T08:51:12.641Z,18.92
2022-12-18T08:53:14.524Z,17.10
2022-12-18T08:55:16.410Z,19.85
2022-12-18T08:57:18.443Z,19.52
2022-12-18T08:59:20.788Z,23.33
2022-12-18T09:01:23.420Z,21.25
2022-12-18T09:03:25.389Z,19.02
2022-12-18T09:07:30.382Z,16.50
2022-12-18T09:09:32.514Z,15.10
2022-12-18T09:11:34.857Z,21.17
2022-12-18T09:13:36.937Z,24.00
2022-12-18T09:15:46.638Z,19.30
2022-12-18T09:17:50.880Z,21.90
2022-12-18T09:19:52.718Z,25.20
2022-12-18T09:21:54.676Z,20.85
2022-12-18T09:26:01.744Z,20.83
2022-12-18T09:28:08.198Z,21.95
2022-12-18T09:30:10.655Z,21.98
2022-12-18T09:32:14.373Z,18.80
2022-12-18T09:34:21.991Z,19.92
2022-12-18T09:36:24.399Z,18.67
2022-12-18T09:38:26.272Z,19.50
2022-12-18T09:40:33.041Z,18.25
2022-12-18T09:42:34.950Z,16.95
2022-12-18T09:46:55.236Z,15.73
2022-12-18T09:49:01.491Z,15.10
2022-12-18T09:51:42.772Z,15.88
2022-12-18T09:53:53.579Z,17.38
2022-12-18T09:55:57.297Z,16.77
2022-12-18T09:58:07.479Z,14.95
2022-12-18T10:00:25.412Z,16.80
2022-12-18T10:02:31.225Z,14.50
2022-12-18T10:04:33.722Z,17.98
2022-12-18T10:06:49.660Z,15.80
2022-12-18T10:09:27.144Z,14.55
2022-12-18T10:11:28.942Z,18.40
2022-12-18T10:13:38.892Z,13.82
2022-12-18T10:15:55.723Z,16.08
2022-12-18T10:18:27.654Z,15.05
2022-12-18T10:20:42.802Z,18.02
2022-12-18T10:22:47.169Z,12.52
2022-12-18T10:25:16.442Z,15.10
2022-12-18T10:27:23.004Z,13.38
2022-12-18T10:29:26.532Z,15.32
2022-12-18T10:31:28.668Z,11.00
2022-12-18T10:33:33.088Z,14.27
2022-12-18T10:35:36.562Z,13.63
2022-12-18T10:38:02.986Z,12.50
2022-12-18T10:40:21.949Z,14.65
2022-12-18T10:42:24.572Z,13.63
2022-12-18T10:44:27.301Z,15.98
2022-12-18T10:46:29.291Z,15.07
2022-12-18T10:48:32.347Z,14.13
2022-12-18T10:51:09.899Z,14.68
2022-12-18T10:53:06.380Z,13.40
2022-12-18T10:55:17.440Z,14.15
2022-12-18T10:57:34.096Z,16.13
2022-12-18T10:59:55.730Z,18.35
2022-12-18T11:01:59.199Z,19.67
2022-12-18T11:04:09.124Z,14.13
2022-12-18T11:06:17.387Z,11.43
2022-12-18T11:08:24.329Z,14.90
2022-12-18T11:10:40.160Z,14.02
2022-12-18T11:12:42.041Z,10.15
2022-12-18T11:14:48.377Z,15.45
2022-12-18T11:19:38.302Z,13.68
2022-12-18T11:21:42.562Z,12.23
2022-12-18T11:23:49.364Z,13.55
2022-12-18T11:25:57.792Z,17.25
2022-12-18T11:28:06.048Z,14.07
2022-12-18T11:30:15.430Z,14.82
2022-12-18T11:32:32.658Z,18.90
2022-12-18T11:34:35.117Z,14.48
2022-12-18T11:36:45.126Z,16.77
2022-12-18T11:38:50.436Z,18.40
2022-12-18T11:41:24.213Z,16.00
2022-12-18T11:43:49.318Z,15.50
2022-12-18T11:45:57.082Z,9.93
2022-12-18T11:48:04.835Z,15.40
2022-12-18T11:50:23.315Z,13.93
2022-12-18T11:52:29.854Z,13.65
2022-12-18T11:54:31.717Z,14.63
2022-12-18T11:56:37.393Z,12.55
2022-12-18T11:58:50.853Z,12.10
2022-12-18T12:01:22.658Z,13.10
2022-12-18T14:17:11.641Z,18.15
2022-12-18T14:19:18.617Z,18.27
2022-12-18T14:21:29.137Z,20.15
2022-12-18T14:23:42.568Z,18.90
2022-12-18T14:25:48.160Z,17.73
2022-12-18T14:28:09.849Z,23.30
2022-12-18T14:30:32.464Z,22.17
2022-12-18T14:32:34.330Z,16.58
2022-12-18T14:34:36.128Z,14.82
2022-12-18T14:36:40.925Z,20.70
2022-12-18T14:38:42.796Z,15.82
2022-12-18T14:40:45.041Z,17.83
2022-12-18T14:42:46.983Z,17.92
2022-12-18T14:47:16.830Z,17.13
2022-12-18T14:49:33.874Z,20.98
2022-12-18T14:51:37.232Z,20.88
2022-12-18T14:53:53.956Z,18.23
2022-12-18T14:55:56.638Z,17.75
2022-12-18T14:57:58.830Z,17.92
2022-12-18T15:00:19.738Z,18.63
2022-12-18T15:02:25.731Z,17.70
2022-12-18T15:04:40.597Z,19.02
2022-12-18T15:06:44.899Z,18.17
2022-12-18T15:08:47.956Z,16.02
2022-12-18T15:10:50.035Z,19.75
2022-12-18T15:12:57.748Z,17.45
2022-12-18T15:14:59.750Z,16.98
2022-12-18T15:17:04.456Z,18.25
2022-12-18T15:19:09.047Z,18.73
2022-12-18T15:21:16.044Z,17.02
2022-12-18T15:23:24.024Z,20.58
2022-12-18T15:25:48.789Z,19.30
2022-12-18T15:27:50.697Z,20.10
2022-12-18T15:32:21.281Z,16.95
2022-12-18T15:34:24.047Z,15.30
2022-12-18T15:36:27.025Z,14.07
2022-12-18T15:38:29.173Z,12.73
2022-12-18T15:42:51.353Z,16.15
2022-12-18T15:44:53.236Z,14.77
2022-12-18T15:49:02.801Z,12.65
2022-12-18T15:51:10.337Z,15.23
2022-12-18T15:53:12.289Z,11.48
2022-12-18T15:57:35.246Z,15.52
2022-12-18T15:59:37.180Z,12.13
2022-12-18T16:03:45.292Z,16.63
2022-12-18T16:05:47.584Z,13.68
2022-12-18T16:09:51.275Z,14.82
2022-12-18T16:13:54.969Z,17.35
2022-12-18T16:17:58.801Z,15.73
2022-12-18T16:22:02.649Z,13.23
2022-12-18T16:24:04.841Z,16.17
2022-12-18T16:26:06.675Z,16.17
2022-12-18T16:28:08.533Z,12.70
2022-12-18T16:32:20.929Z,15.98
2022-12-18T16:34:29.456Z,14.80
2022-12-18T16:36:31.598Z,14.73
2022-12-18T16:38:33.456Z,10.13
2022-12-18T16:42:57.003Z,14.52
2022-12-18T16:44:58.890Z,13.02
2022-12-18T16:49:05.716Z,10.43
2022-12-18T16:51:07.640Z,9.60
2022-12-18T16:55:11.492Z,10.52
2022-12-18T16:57:15.112Z,17.33
2022-12-18T16:59:17.242Z,11.15
2022-12-18T17:01:23.774Z,15.55
2022-12-18T17:03:25.896Z,13.98
2022-12-18T17:05:27.802Z,13.73
2022-12-18T17:09:37.349Z,14.18
2022-12-18T17:11:42.662Z,17.58
2022-12-18T17:13:44.543Z,13.40
2022-12-18T17:19:51.250Z,18.98
2022-12-18T17:21:54.333Z,18.00
2022-12-18T17:23:56.420Z,17.63
2022-12-18T17:26:01.426Z,22.50
2022-12-18T17:28:03.351Z,18.40
2022-12-18T17:30:07.013Z,22.42
2022-12-18T17:32:08.923Z,17.02
2022-12-18T17:38:15.402Z,13.55
2022-12-18T17:40:18.446Z,17.42
2022-12-18T17:42:21.651Z,12.77
2022-12-18T17:44:26.741Z,13.70
2022-12-18T17:46:31.833Z,15.18
2022-12-18T17:48:34.173Z,17.58
2022-12-18T17:50:36.545Z,12.60
2022-12-18T17:52:38.396Z,12.60
2022-12-18T17:54:42.161Z,11.18
2022-12-18T17:56:50.229Z,12.07
2022-12-18T17:58:52.137Z,9.13
2022-12-18T20:14:36.763Z,13.43
2022-12-18T20:20:43.322Z,16.95
2022-12-18T20:22:45.276Z,15.18
2022-12-18T20:24:47.274Z,10.90
2022-12-18T20:26:51.588Z,15.75
2022-12-18T20:31:00.943Z,12.77
2022-12-18T20:33:02.889Z,11.98
2022-12-18T20:37:08.362Z,12.98
2022-12-18T20:39:12.296Z,16.77
2022-12-18T20:41:18.675Z,13.05
2022-12-18T20:43:20.536Z,12.75
2022-12-18T20:47:24.374Z,11.32
2022-12-18T20:49:27.124Z,9.23
2022-12-18T20:51:29.288Z,11.85
2022-12-18T20:53:31.971Z,12.82
2022-12-18T20:55:33.817Z,13.07
2022-12-18T20:57:35.739Z,11.70
2022-12-18T20:59:46.241Z,11.13
2022-12-18T21:01:50.243Z,10.95
2022-12-18T21:03:52.893Z,10.00
2022-12-18T21:05:54.731Z,9.27
2022-12-18T21:07:56.537Z,9.68
2022-12-18T21:09:58.408Z,11.57
2022-12-18T21:12:18.705Z,11.07
2022-12-18T21:14:23.277Z,10.77
2022-12-18T21:16:25.333Z,10.75
2022-12-18T21:18:28.058Z,12.38
2022-12-18T21:22:31.772Z,9.75
2022-12-18T21:26:39.193Z,6.65
2022-12-18T21:28:45.514Z,9.25
2022-12-18T21:32:49.258Z,11.07
2022-12-18T21:34:52.039Z,11.48
2022-12-18T21:36:55.876Z,11.82
2022-12-18T21:38:59.107Z,11.43
2022-12-18T21:41:05.763Z,14.60
2022-12-18T21:43:28.212Z,15.40
2022-12-18T21:47:31.975Z,9.80
2022-12-18T21:51:36.705Z,13.02
2022-12-18T21:53:38.784Z,11.88
2022-12-18T21:55:40.678Z,13.10
2022-12-18T21:59:44.550Z,10.63
2022-12-18T22:01:48.179Z,8.43
2022-12-18T22:03:50.117Z,7.18
2022-12-18T22:08:11.655Z,9.23
2022-12-18T22:10:14.046Z,8.85
2022-12-18T22:12:35.508Z,8.68
2022-12-18T22:14:38.291Z,7.13
2022-12-18T22:16:40.194Z,6.95
2022-12-18T22:18:43.092Z,6.18
2022-12-18T22:20:49.196Z,6.88
2022-12-18T22:22:52.520Z,5.65
2022-12-18T22:24:54.502Z,6.70
2022-12-18T22:29:23.448Z,8.05
2022-12-18T22:31:25.383Z,9.95
2022-12-18T22:33:27.717Z,8.43
2022-12-18T22:35:29.585Z,8.75
2022-12-18T22:37:31.502Z,8.73
2022-12-18T22:41:35.773Z,10.25
2022-12-18T22:43:38.108Z,13.07
2022-12-18T22:45:40.042Z,15.02
2022-12-18T22:47:42.563Z,16.13
2022-12-18T22:49:44.515Z,16.52
2022-12-18T22:53:55.911Z,12.23
2022-12-18T22:56:02.413Z,17.23
2022-12-18T22:58:04.462Z,16.83
2022-12-18T23:00:08.579Z,16.52
2022-12-18T23:02:10.555Z,14.27
2022-12-18T23:04:13.269Z,17.48
2022-12-18T23:06:15.445Z,14.80
2022-12-18T23:08:17.453Z,19.20
2022-12-18T23:10:19.412Z,16.63
2022-12-18T23:14:23.454Z,9.20
2022-12-18T23:18:27.190Z,15.13
2022-12-18T23:22:30.956Z,24.45
2022-12-18T23:26:35.040Z,15.00
2022-12-18T23:28:37.989Z,15.63
2022-12-18T23:30:39.852Z,14.70
2022-12-18T23:34:43.829Z,19.20
2022-12-18T23:36:46.949Z,12.57
2022-12-18T23:38:51.646Z,19.23
2022-12-18T23:40:53.488Z,14.07
2022-12-18T23:43:00.186Z,12.88
2022-12-18T23:45:05.238Z,7.47
2022-12-18T23:47:19.321Z,11.70
2022-12-18T23:49:21.279Z,9.98
2022-12-18T23:53:26.869Z,7.10
2022-12-18T23:57:30.448Z,6.47
2022-12-18T23:59:32.398Z,8.93
